Data for 06/30/2006

Time Sea-Level Adjusted Pressure Absolute Pressure Temperature Relative Humidity Dew Point   
(mb) (inHg) (mb) (inHg) (C) (F) (%) (C) (F)
00:05 1025 30.27 854 25.22 16 60.9 83 13.1 55.6
00:10 1025 30.27 854 25.22 16.4 61.5 82 13.3 55.9
00:15 1025 30.27 854 25.22 16.5 61.6 83 13.5 56.3
00:20 1025 30.27 854 25.22 16 60.9 85 13.6 56.5
00:25 1026 30.3 855 25.25 15.8 60.4 90 14.1 57.5
00:30 1026 30.3 855 25.25 15.6 60 92 14.2 57.6
00:35 1026 30.3 855 25.25 15.4 59.7 92 14.2 57.5
00:40 1026 30.3 855 25.25 15.2 59.3 94 14.2 57.5
00:45 1026 30.3 856 25.28 15 59 94 14.1 57.4
00:50 1026 30.3 856 25.28 15 58.9 95 14.1 57.4
00:55 1026 30.3 856 25.28 14.8 58.7 95 14.1 57.3
01:00 1026 30.3 855 25.25 14.6 58.3 96 14 57.2
01:05 1026 30.3 855 25.25 14.4 58 97 14 57.1
01:10 1025 30.27 854 25.22 14.2 57.6 98 13.8 56.9
01:15 1024 30.24 853 25.19 14.1 57.4 97 13.7 56.7
01:20 1024 30.24 853 25.19 14.1 57.5 97 13.6 56.5
01:25 1023 30.21 853 25.19 14.3 57.8 95 13.6 56.4
01:30 1023 30.21 853 25.19 14.3 57.8 96 13.8 56.8
01:35 1023 30.21 853 25.19 14.3 57.8 95 13.5 56.3
01:40 1023 30.21 853 25.19 14.5 58.1 94 13.6 56.6
01:45 1023 30.21 853 25.19 14.6 58.2 92 13.4 56.1
01:50 1023 30.21 853 25.19 14.7 58.4 91 13.3 55.9
01:55 1023 30.21 852 25.16 14.8 58.6 91 13.4 56.1
02:00 1023 30.21 852 25.16 14.6 58.4 91 13.1 55.6
02:05 1023 30.21 852 25.16 14.8 58.6 86 12.5 54.5
02:10 1023 30.21 852 25.16 14.9 58.8 91 13.4 56.1
02:15 1023 30.21 852 25.16 15 59.1 86 12.8 55
02:20 1023 30.21 852 25.16 14.8 58.7 84 12.2 54
02:25 1023 30.21 852 25.16 14.8 58.6 85 12.4 54.3
02:30 1023 30.21 852 25.16 14.8 58.6 85 12.3 54.2
02:35 1023 30.21 852 25.16 14.6 58.3 88 12.7 54.8
02:40 1023 30.21 852 25.16 14.5 58.1 87 12.4 54.4
02:45 1023 30.21 852 25.16 14.5 58.2 88 12.6 54.7
02:50 1023 30.21 852 25.16 14.4 57.8 89 12.6 54.6
02:55 1023 30.21 852 25.16 14.4 57.9 86 12.1 53.9
03:00 1023 30.21 852 25.16 14.4 57.9 87 12.2 54
03:05 1023 30.21 852 25.16 14.3 57.8 86 12 53.6
03:10 1023 30.21 852 25.16 14.4 57.9 84 11.8 53.3
03:15 1023 30.21 852 25.16 14.3 57.7 85 11.9 53.3
03:20 1023 30.21 852 25.16 14.2 57.6 85 11.8 53.2
03:25 1023 30.21 852 25.16 14.3 57.7 86 11.9 53.5
03:30 1023 30.21 852 25.16 14.5 58 82 11.5 52.7
03:35 1023 30.21 852 25.16 14.6 58.3 84 11.9 53.4
03:40 1023 30.21 852 25.16 14.3 57.7 86 12 53.6
03:45 1023 30.21 852 25.16 13.8 56.8 87 11.7 53.1
03:50 1023 30.21 852 25.16 13.7 56.7 87 11.6 52.8
03:55 1023 30.21 852 25.16 13.6 56.4 88 11.6 52.9
04:00 1023 30.21 852 25.16 13.5 56.2 88 11.5 52.6
04:05 1023 30.21 852 25.16 13.5 56.3 87 11.5 52.7
04:10 1023 30.21 852 25.16 13.4 56.1 88 11.4 52.6
04:15 1023 30.21 852 25.16 13.3 55.9 88 11.3 52.4
04:20 1023 30.21 852 25.16 12.9 55.3 89 11.2 52.2
04:25 1023 30.21 852 25.16 12.7 54.8 90 11.1 52
04:30 1023 30.21 852 25.16 12.7 54.9 89 11 51.9
04:35 1023 30.21 852 25.16 12.7 54.8 92 11.4 52.6
04:40 1023 30.21 852 25.16 12.6 54.6 91 11.1 51.9
04:45 1023 30.21 853 25.19 12.1 53.8 92 10.8 51.5
04:50 1023 30.21 853 25.19 11.9 53.5 92 10.7 51.2
04:55 1023 30.21 853 25.19 12.2 53.9 90 10.6 51
05:00 1023 30.21 853 25.19 12.3 54.1 90 10.7 51.2
05:05 1023 30.21 853 25.19 12.3 54.1 90 10.7 51.2
05:10 1023 30.21 853 25.19 12.2 54 90 10.7 51.2
05:15 1023 30.21 853 25.19 12.3 54.2 89 10.6 51.1
05:20 1023 30.21 853 25.19 12.3 54.2 91 10.9 51.6
05:25 1024 30.24 853 25.19 12.1 53.8 92 10.8 51.5
05:30 1024 30.24 853 25.19 12 53.6 95 11.2 52.2
05:35 1024 30.24 853 25.19 12.1 53.8 92 10.9 51.6
05:40 1024 30.24 853 25.19 12.2 53.9 92 10.8 51.5
05:45 1024 30.24 853 25.19 12.3 54.1 90 10.8 51.4
05:50 1024 30.24 853 25.19 12.5 54.4 89 10.8 51.4
05:55 1024 30.24 853 25.19 12.5 54.6 89 10.7 51.3
06:00 1024 30.24 853 25.19 12.8 55 87 10.7 51.3
06:05 1024 30.24 853 25.19 12.8 55 87 10.7 51.2
06:10 1024 30.24 853 25.19 12.6 54.8 88 10.7 51.3
06:15 1024 30.24 853 25.19 12.8 55 88 10.9 51.7
06:20 1024 30.24 853 25.19 12.8 55 89 11 51.8
06:25 1024 30.24 853 25.19 12.7 54.9 88 10.8 51.4
06:30 1024 30.24 853 25.19 12.5 54.5 88 10.6 51.1
06:35 1024 30.24 853 25.19 12.7 54.9 87 10.6 51
06:40 1024 30.24 853 25.19 13 55.5 87 11 51.8
06:45 1024 30.24 854 25.22 13 55.4 86 10.8 51.4
06:50 1024 30.24 854 25.22 13 55.4 86 10.8 51.5
06:55 1024 30.24 854 25.22 13.2 55.7 86 10.9 51.6
07:00 1024 30.24 854 25.22 13.5 56.2 85 11 51.8
07:05 1024 30.24 854 25.22 13.8 56.8 87 11.6 52.9
07:10 1024 30.24 854 25.22 13.9 57.1 84 11.3 52.4
07:15 1025 30.27 854 25.22 14 57.3 84 11.4 52.5
07:20 1025 30.27 854 25.22 14.2 57.5 85 11.6 52.9
07:25 1025 30.27 854 25.22 14.4 57.9 82 11.4 52.6
07:30 1025 30.27 854 25.22 14.4 57.9 85 11.9 53.4
07:35 1025 30.27 854 25.22 15 59.1 80 11.7 53.1
07:40 1025 30.27 854 25.22 15.7 60.3 78 11.9 53.4
07:45 1025 30.27 854 25.22 16.2 61.1 77 12.2 53.9
07:50 1025 30.27 854 25.22 16.3 61.3 79 12.7 54.9
07:55 1025 30.27 854 25.22 16.7 62.1 77 12.7 54.9
08:00 1025 30.27 854 25.22 16.9 62.4 75 12.5 54.6
08:05 1025 30.27 854 25.22 17.3 63.1 72 12.3 54.2
08:10 1025 30.27 854 25.22 17.6 63.7 73 12.7 54.9
08:15 1025 30.27 854 25.22 18 64.4 74 13.4 56.2
08:20 1025 30.27 854 25.22 18.2 64.8 70 12.8 55.1
08:25 1025 30.27 854 25.22 18.1 64.5 71 12.8 55
08:30 1025 30.27 854 25.22 18.5 65.2 70 13 55.4
08:35 1025 30.27 854 25.22 18.6 65.4 69 12.8 55.1
08:40 1025 30.27 854 25.22 19.4 66.9 65 12.8 55
08:45 1025 30.27 854 25.22 19.2 66.6 67 12.9 55.3
08:50 1025 30.27 854 25.22 19.1 66.4 63 12.1 53.8
08:55 1025 30.27 854 25.22 19.1 66.4 66 12.6 54.7
09:00 1025 30.27 854 25.22 19.2 66.5 64 12.4 54.3
09:05 1025 30.27 854 25.22 19.3 66.8 63 12.2 53.9
09:10 1025 30.27 854 25.22 18.6 65.4 67 12.4 54.4
09:15 1025 30.27 854 25.22 19.1 66.3 64 12.2 54
09:20 1025 30.27 854 25.22 19 66.2 65 12.3 54.2
09:25 1025 30.27 854 25.22 18.4 65.1 66 12.1 53.8
09:30 1025 30.27 854 25.22 18.9 66.1 65 12.2 54
09:35 1025 30.27 854 25.22 19.2 66.6 62 11.8 53.2
09:40 1025 30.27 854 25.22 19.6 67.2 61 12 53.7
09:45 1025 30.27 854 25.22 20.1 68.2 58 11.8 53.2
09:50 1025 30.27 854 25.22 20.2 68.4 60 12.3 54.1
09:55 1025 30.27 854 25.22 20 67.9 60 12.1 53.8
10:00 1025 30.27 854 25.22 19.8 67.6 58 11.3 52.4
10:05 1025 30.27 854 25.22 19.9 67.9 55 10.7 51.2
10:10 1025 30.27 854 25.22 20.2 68.4 53 10.4 50.8
10:15 1025 30.27 854 25.22 20 68 56 11 51.9
10:20 1025 30.27 854 25.22 19.9 67.8 58 11.6 52.9
10:25 1025 30.27 854 25.22 20 68.1 58 11.5 52.8
10:30 1025 30.27 854 25.22 20.4 68.8 56 11.5 52.7
10:35 1025 30.27 854 25.22 20.7 69.2 53 10.9 51.7
10:40 1025 30.27 854 25.22 21 69.7 53 11.1 52.1
10:45 1025 30.27 854 25.22 21.2 70.1 53 11.3 52.4
10:50 1025 30.27 854 25.22 21.3 70.4 54 11.9 53.4
10:55 1025 30.27 854 25.22 20.5 68.9 58 12 53.7
11:00 1025 30.27 854 25.22 21.3 70.3 50 10.5 50.9
11:05 1025 30.27 854 25.22 21.6 70.9 50 10.8 51.5
11:10 1025 30.27 854 25.22 21.2 70.1 51 10.7 51.2
11:15 1025 30.27 854 25.22 21.5 70.6 50 10.7 51.3
11:20 1025 30.27 854 25.22 22 71.5 50 11.2 52.1
11:25 1025 30.27 854 25.22 22.1 71.8 49 11.1 52
11:30 1025 30.27 854 25.22 22 71.6 48 10.7 51.3
11:35 1025 30.27 854 25.22 22 71.6 50 11.1 52
11:40 1024 30.24 854 25.22 22 71.6 52 11.8 53.3
11:45 1024 30.24 854 25.22 22.5 72.4 49 11.5 52.6
11:50 1024 30.24 854 25.22 22.6 72.7 49 11.6 53
11:55 1024 30.24 854 25.22 22.8 73 47 11.2 52.1
12:00 1024 30.24 853 25.19 22.4 72.2 50 11.7 53.1
12:05 1024 30.24 853 25.19 21.8 71.2 53 11.9 53.3
12:10 1024 30.24 853 25.19 21.8 71.3 51 11.5 52.6
12:15 1024 30.24 853 25.19 22.3 72.1 52 12.2 54
12:20 1024 30.24 853 25.19 22.5 72.5 48 11.3 52.3
12:25 1024 30.24 853 25.19 23 73.4 47 11.3 52.3
12:30 1024 30.24 853 25.19 23.4 74.1 48 12 53.5
12:35 1024 30.24 853 25.19 23.3 73.9 50 12.5 54.5
12:40 1024 30.24 853 25.19 23.1 73.7 50 12.2 53.9
12:45 1024 30.24 853 25.19 23.2 73.7 49 12.1 53.7
12:50 1024 30.24 853 25.19 23.3 73.9 48 11.9 53.4
12:55 1024 30.24 853 25.19 22.7 72.9 52 12.6 54.7
13:00 1024 30.24 853 25.19 22.4 72.3 52 12.2 53.9
13:05 1024 30.24 853 25.19 22.9 73.3 46 10.8 51.4
13:10 1024 30.24 853 25.19 23.4 74.1 49 12.3 54.1
13:15 1024 30.24 853 25.19 23.2 73.8 50 12.4 54.3
13:20 1024 30.24 853 25.19 23.4 74.1 49 12.2 53.9
13:25 1024 30.24 853 25.19 23.5 74.2 52 13.2 55.8
13:30 1024 30.24 853 25.19 23.1 73.5 50 12.4 54.3
13:35 1024 30.24 853 25.19 23.3 74 52 13.2 55.7
13:40 1024 30.24 853 25.19 22.7 72.8 49 11.7 53.1
13:45 1024 30.24 853 25.19 22.8 73 48 11.5 52.7
13:50 1024 30.24 853 25.19 23.3 73.9 50 12.5 54.5
13:55 1024 30.24 853 25.19 22.8 73 49 11.7 53.1
14:00 1024 30.24 853 25.19 23.2 73.8 47 11.5 52.7
14:05 1024 30.24 853 25.19 23.7 74.6 43 10.6 51.1
14:10 1024 30.24 853 25.19 24.3 75.7 40 10 50.1
14:15 1024 30.24 853 25.19 24.8 76.7 40 10.7 51.2
14:20 1024 30.24 853 25.19 25.2 77.4 38 10.2 50.4
14:25 1024 30.24 853 25.19 25.1 77.2 39 10.3 50.5
14:30 1024 30.24 853 25.19 25.8 78.4 37 10.3 50.6
14:35 1024 30.24 853 25.19 25.8 78.5 37 10.4 50.7
14:40 1024 30.24 853 25.19 25.3 77.5 39 10.6 51
14:45 1024 30.24 853 25.19 24.9 76.9 40 10.5 50.8
14:50 1023 30.21 853 25.19 24.5 76.1 41 10.6 51.1
14:55 1023 30.21 853 25.19 24.8 76.6 39 10.3 50.5
15:00 1023 30.21 853 25.19 25.2 77.4 39 10.6 51.1
15:05 1023 30.21 852 25.16 25.3 77.6 39 10.5 50.9
15:10 1023 30.21 853 25.19 25.8 78.4 37 10.2 50.4
15:15 1023 30.21 852 25.16 26.5 79.6 36 10.4 50.8
15:20 1023 30.21 852 25.16 25.9 78.7 39 11 51.8
15:25 1023 30.21 852 25.16 25.4 77.7 39 10.8 51.5
15:30 1023 30.21 852 25.16 25.9 78.7 39 11.3 52.3
15:35 1023 30.21 852 25.16 26.2 79.1 37 10.7 51.3
15:40 1023 30.21 852 25.16 26 78.8 38 10.8 51.4
15:45 1023 30.21 852 25.16 26 78.8 38 11 51.8
15:50 1023 30.21 852 25.16 25.8 78.5 39 10.9 51.6
15:55 1023 30.21 852 25.16 25.9 78.6 39 11.1 52
16:00 1023 30.21 852 25.16 25.7 78.3 37 10.2 50.3
16:05 1023 30.21 852 25.16 25.6 78.2 39 11 51.8
16:10 1023 30.21 852 25.16 25.3 77.5 40 10.8 51.4
16:15 1023 30.21 852 25.16 26 78.8 38 10.9 51.7
16:20 1023 30.21 852 25.16 26.2 79.2 38 11 51.7
16:25 1023 30.21 852 25.16 25.9 78.6 39 11.3 52.3
16:30 1023 30.21 852 25.16 25.6 78 39 10.9 51.7
16:35 1023 30.21 852 25.16 26.3 79.4 37 10.8 51.4
16:40 1023 30.21 852 25.16 26.7 80 37 11.1 52
16:45 1023 30.21 852 25.16 26.2 79.1 38 10.8 51.4
16:50 1022 30.18 852 25.16 26.3 79.4 38 11 51.8
16:55 1022 30.18 852 25.16 26.1 79 38 10.8 51.4
17:00 1022 30.18 852 25.16 26.1 78.9 38 10.8 51.5
17:05 1022 30.18 852 25.16 26 78.8 38 11 51.8
17:10 1022 30.18 852 25.16 25.8 78.4 39 11 51.8
17:15 1022 30.18 851 25.13 25.5 78 39 10.9 51.7
17:20 1022 30.18 851 25.13 25.7 78.2 39 10.8 51.4
17:25 1022 30.18 851 25.13 25.5 77.9 40 11 51.7
17:30 1022 30.18 851 25.13 25.7 78.3 38 10.6 51.1
17:35 1022 30.18 851 25.13 26 78.8 38 10.8 51.4
17:40 1022 30.18 851 25.13 26.3 79.3 38 11 51.9
17:45 1022 30.18 851 25.13 26.2 79.2 38 11.2 52.1
17:50 1022 30.18 851 25.13 26 78.8 39 11.2 52.2
17:55 1022 30.18 851 25.13 25.7 78.3 37 10.2 50.3
18:00 1022 30.18 851 25.13 25.5 77.9 38 10.4 50.7
18:05 1022 30.18 851 25.13 25.5 77.9 37 9.9 49.7
18:10 1022 30.18 851 25.13 25.9 78.6 37 10.5 50.8
18:15 1022 30.18 851 25.13 25.9 78.7 38 10.6 51.1
18:20 1022 30.18 851 25.13 26 78.7 37 10.4 50.7
18:25 1022 30.18 851 25.13 26 78.8 36 10.1 50.2
18:30 1022 30.18 851 25.13 26 78.8 34 9.4 48.9
18:35 1022 30.18 851 25.13 26 78.8 35 9.5 49.1
18:40 1022 30.18 851 25.13 25.9 78.7 35 9.5 49
18:45 1022 30.18 851 25.13 26.1 79 33 8.9 48
18:50 1022 30.18 851 25.13 26.1 79 33 8.6 47.6
18:55 1022 30.18 851 25.13 26.2 79.1 34 9.2 48.6
19:00 1022 30.18 851 25.13 25.9 78.6 37 10.2 50.3
19:05 1022 30.18 851 25.13 25.7 78.3 35 9.6 49.2
19:10 1022 30.18 851 25.13 25.2 77.4 38 10 49.9
19:15 1022 30.18 851 25.13 25 77 39 10.2 50.4
19:20 1022 30.18 851 25.13 25 77 38 10 50
19:25 1022 30.18 851 25.13 24.5 76 40 10.1 50.1
19:30 1022 30.18 851 25.13 24.2 75.5 39 9.7 49.4
19:35 1022 30.18 851 25.13 24.4 75.8 38 9.5 49.1
19:40 1022 30.18 851 25.13 24.6 76.3 38 9.5 49.2
19:45 1022 30.18 851 25.13 24.7 76.4 37 9.4 49
19:50 1022 30.18 851 25.13 24.6 76.3 38 9.6 49.2
19:55 1022 30.18 851 25.13 24.4 76 39 9.9 49.7
20:00 1022 30.18 851 25.13 24 75.2 40 9.8 49.6
20:05 1022 30.18 851 25.13 24.1 75.4 39 9.5 49.1
20:10 1022 30.18 851 25.13 24 75.2 40 9.8 49.6
20:15 1022 30.18 851 25.13 24.1 75.3 38 9.2 48.6
20:20 1022 30.18 851 25.13 24.2 75.5 39 9.5 49.1
20:25 1022 30.18 851 25.13 24.2 75.5 37 8.8 47.9
20:30 1022 30.18 851 25.13 24 75.2 37 8.7 47.7
20:35 1022 30.18 851 25.13 23.9 74.9 40 9.8 49.6
20:40 1022 30.18 851 25.13 23.7 74.6 43 10.4 50.7
20:45 1022 30.18 851 25.13 23.4 74.2 45 11 51.8
20:50 1022 30.18 851 25.13 23.1 73.5 46 11 51.8
20:55 1022 30.18 851 25.13 22.8 73.1 46 10.7 51.2
21:00 1022 30.18 851 25.13 22.8 73 50 12 53.6
21:05 1022 30.18 851 25.13 22.4 72.4 53 12.4 54.4
21:10 1022 30.18 851 25.13 22.1 71.7 57 13.4 56.1
21:15 1022 30.18 851 25.13 21.7 71.1 59 13.4 56.1
21:20 1022 30.18 851 25.13 21.1 69.9 60 13 55.5
21:25 1022 30.18 851 25.13 20.7 69.2 62 13.3 55.9
21:30 1022 30.18 851 25.13 20.4 68.7 62 13 55.3
21:35 1022 30.18 851 25.13 20.1 68.2 63 13 55.4
21:40 1022 30.18 851 25.13 19.6 67.3 65 12.9 55.2
21:45 1022 30.18 851 25.13 19.5 67 69 13.7 56.7
21:50 1022 30.18 851 25.13 19.3 66.7 66 12.8 55.1
21:55 1022 30.18 851 25.13 19.2 66.5 65 12.6 54.7
22:00 1022 30.18 851 25.13 19.1 66.4 66 12.7 54.9
22:05 1022 30.18 851 25.13 18.8 65.8 66 12.4 54.4
22:10 1022 30.18 851 25.13 18.6 65.5 64 11.7 53.1
22:15 1022 30.18 851 25.13 18.8 65.9 63 11.6 52.9
22:20 1022 30.18 851 25.13 18.5 65.3 67 12.4 54.3
22:25 1022 30.18 851 25.13 18.1 64.5 66 11.7 53
22:30 1022 30.18 851 25.13 18 64.4 65 11.4 52.6
22:35 1022 30.18 851 25.13 17.9 64.1 64 11 51.8
22:40 1022 30.18 851 25.13 17.8 64.1 64 10.9 51.6
22:45 1022 30.18 851 25.13 17.7 63.9 65 11.1 52.1
22:50 1022 30.18 851 25.13 17.7 63.9 65 11 51.8
22:55 1022 30.18 851 25.13 17.6 63.7 65 11 51.9
23:00 1022 30.18 851 25.13 17.5 63.5 65 11 51.8
23:05 1022 30.18 852 25.16 17.4 63.3 66 10.9 51.7
23:10 1022 30.18 852 25.16 17 62.7 68 11.1 51.9
23:15 1022 30.18 852 25.16 16.7 62.1 69 11 51.8
23:20 1022 30.18 852 25.16 16.6 62 68 10.9 51.6
23:25 1022 30.18 852 25.16 16.5 61.7 69 10.9 51.6
23:30 1022 30.18 852 25.16 16.6 61.8 72 11.5 52.7
23:35 1022 30.18 852 25.16 16.6 61.9 68 10.8 51.4
23:40 1022 30.18 852 25.16 16.3 61.4 69 10.7 51.2
23:45 1022 30.18 852 25.16 16.2 61.2 68 10.4 50.8
23:50 1022 30.18 852 25.16 16.5 61.6 69 10.8 51.4
23:55 1022 30.18 852 25.16 16.5 61.6 67 10.5 50.8
24:00 1022 30.18 851 25.13 16.2 61.1 69 10.6 51.1